createdAt,value
2023-11-07T00:00:37.028Z,9.83
2023-11-07T00:01:37.024Z,9.82
2023-11-07T00:02:37.095Z,9.82
2023-11-07T00:03:37.129Z,9.81
2023-11-07T00:04:36.973Z,9.81
2023-11-07T00:05:37.134Z,9.82
2023-11-07T00:06:37.032Z,9.82
2023-11-07T00:07:36.944Z,9.83
2023-11-07T00:08:36.960Z,9.83
2023-11-07T00:09:36.933Z,9.83
2023-11-07T00:10:36.919Z,9.84
2023-11-07T00:11:37.011Z,9.84
2023-11-07T00:12:36.945Z,9.84
2023-11-07T00:13:36.933Z,9.84
2023-11-07T00:14:36.902Z,9.84
2023-11-07T00:15:36.890Z,9.83
2023-11-07T00:16:36.948Z,9.83
2023-11-07T00:17:36.917Z,9.83
2023-11-07T00:18:36.960Z,9.82
2023-11-07T00:19:36.816Z,9.81
2023-11-07T00:20:36.844Z,9.80
2023-11-07T00:21:36.841Z,9.80
2023-11-07T00:22:36.795Z,9.80
2023-11-07T00:23:36.845Z,9.80
2023-11-07T00:24:36.771Z,9.79
2023-11-07T00:25:36.771Z,9.79
2023-11-07T00:26:36.813Z,9.78
2023-11-07T00:27:36.723Z,9.78
2023-11-07T00:28:36.724Z,9.78
2023-11-07T00:29:36.897Z,9.78
2023-11-07T00:30:36.762Z,9.78
2023-11-07T00:31:36.694Z,9.79
2023-11-07T00:32:36.868Z,9.79
2023-11-07T00:33:36.897Z,9.80
2023-11-07T00:34:36.685Z,9.80
2023-11-07T00:35:36.677Z,9.81
2023-11-07T00:36:36.660Z,9.81
2023-11-07T00:37:37.362Z,9.81
2023-11-07T00:38:36.622Z,9.80
2023-11-07T00:39:36.646Z,9.80
2023-11-07T00:40:36.587Z,9.80
2023-11-07T00:41:36.715Z,9.81
2023-11-07T00:42:36.607Z,9.82
2023-11-07T00:43:36.565Z,9.83
2023-11-07T00:44:36.630Z,9.84
2023-11-07T00:45:36.554Z,9.85
2023-11-07T00:46:36.540Z,9.86
2023-11-07T00:47:36.592Z,9.87
2023-11-07T00:48:36.815Z,9.88
2023-11-07T00:49:37.315Z,9.90
2023-11-07T00:50:36.542Z,9.90
2023-11-07T00:51:36.491Z,9.91
2023-11-07T00:52:36.470Z,9.91
2023-11-07T00:53:36.471Z,9.91
2023-11-07T00:54:36.460Z,9.91
2023-11-07T00:55:36.452Z,9.92
2023-11-07T00:56:36.435Z,9.92
2023-11-07T00:57:36.400Z,9.93
2023-11-07T00:58:36.421Z,9.93
2023-11-07T00:59:36.425Z,9.93
2023-11-07T01:00:36.397Z,9.93
2023-11-07T01:01:36.368Z,9.93
2023-11-07T01:02:36.456Z,9.92
2023-11-07T01:03:36.472Z,9.93
2023-11-07T01:04:36.451Z,9.93
2023-11-07T01:05:36.403Z,9.93
2023-11-07T01:06:36.426Z,9.93
2023-11-07T01:07:36.333Z,9.94
2023-11-07T01:08:36.334Z,9.94
2023-11-07T01:09:36.293Z,9.95
2023-11-07T01:10:36.262Z,9.96
2023-11-07T01:11:36.412Z,9.96
2023-11-07T01:12:36.245Z,9.96
2023-11-07T01:13:36.235Z,9.96
2023-11-07T01:14:36.284Z,9.96
2023-11-07T01:15:36.260Z,9.95
2023-11-07T01:16:36.201Z,9.94
2023-11-07T01:17:36.361Z,9.93
2023-11-07T01:18:36.299Z,9.92
2023-11-07T01:19:36.185Z,9.92
2023-11-07T01:20:36.218Z,9.92
2023-11-07T01:21:36.152Z,9.92
2023-11-07T01:22:36.146Z,9.92
2023-11-07T01:23:36.142Z,9.91
2023-11-07T01:24:36.129Z,9.91
2023-11-07T01:25:36.148Z,9.91
2023-11-07T01:26:36.161Z,9.92
2023-11-07T01:27:36.107Z,9.92
2023-11-07T01:28:36.078Z,9.93
2023-11-07T01:29:36.110Z,9.94
2023-11-07T01:30:36.071Z,9.95
2023-11-07T01:31:36.054Z,9.95
2023-11-07T01:32:36.113Z,9.96
2023-11-07T01:33:36.321Z,9.97
2023-11-07T01:34:36.108Z,9.98
2023-11-07T01:35:36.013Z,9.98
2023-11-07T01:36:35.991Z,9.99
2023-11-07T01:37:36.037Z,9.99
2023-11-07T01:38:35.996Z,10.00
2023-11-07T01:39:36.034Z,10.00
2023-11-07T01:40:36.042Z,10.00
2023-11-07T01:41:35.956Z,10.00
2023-11-07T01:42:35.936Z,10.01
2023-11-07T01:43:35.901Z,10.01
2023-11-07T01:44:35.978Z,10.01
2023-11-07T01:45:35.903Z,10.01
2023-11-07T01:46:35.931Z,10.01
2023-11-07T01:47:35.897Z,10.01
2023-11-07T01:48:36.003Z,10.00
2023-11-07T01:49:35.838Z,10.00
2023-11-07T01:50:35.899Z,10.00
2023-11-07T01:51:39.650Z,9.99
2023-11-07T01:52:35.829Z,9.99
2023-11-07T01:53:35.857Z,9.99
2023-11-07T01:54:36.024Z,9.99
2023-11-07T01:55:35.807Z,9.99
2023-11-07T01:56:35.802Z,9.99
2023-11-07T01:57:35.747Z,10.00
2023-11-07T01:58:35.757Z,10.00
2023-11-07T01:59:35.782Z,10.01
2023-11-07T02:00:35.730Z,10.01
2023-11-07T02:01:36.787Z,10.02
2023-11-07T02:02:35.811Z,10.02
2023-11-07T02:03:35.729Z,10.02
2023-11-07T02:04:35.730Z,10.01
2023-11-07T02:05:35.975Z,10.01
2023-11-07T02:06:35.741Z,10.01
2023-11-07T02:07:35.711Z,10.00
2023-11-07T02:08:35.709Z,10.00
2023-11-07T02:09:35.658Z,10.00
2023-11-07T02:10:35.689Z,10.00
2023-11-07T02:11:35.675Z,9.99
2023-11-07T02:12:35.596Z,9.99
2023-11-07T02:13:35.627Z,9.98
2023-11-07T02:14:35.728Z,9.98
2023-11-07T02:15:35.592Z,9.97
2023-11-07T02:16:39.338Z,9.97
2023-11-07T02:17:35.627Z,9.96
2023-11-07T02:18:35.691Z,9.96
2023-11-07T02:19:35.698Z,9.96
2023-11-07T02:20:35.614Z,9.96
2023-11-07T02:21:35.518Z,9.96
2023-11-07T02:22:35.513Z,9.96
2023-11-07T02:23:35.583Z,9.96
2023-11-07T02:24:35.547Z,9.96
2023-11-07T02:25:35.539Z,9.96
2023-11-07T02:26:35.488Z,9.95
2023-11-07T02:27:35.446Z,9.95
2023-11-07T02:28:35.430Z,9.94
2023-11-07T02:29:35.501Z,9.94
2023-11-07T02:30:35.476Z,9.94
2023-11-07T02:31:35.404Z,9.94
2023-11-07T02:32:35.485Z,9.94
2023-11-07T02:33:35.473Z,9.94
2023-11-07T02:34:35.410Z,9.94
2023-11-07T02:35:35.408Z,9.95
2023-11-07T02:36:35.347Z,9.95
2023-11-07T02:37:35.324Z,9.95
2023-11-07T02:38:35.366Z,9.96
2023-11-07T02:39:35.354Z,9.96
2023-11-07T02:40:35.361Z,9.97
2023-11-07T02:41:35.300Z,9.97
2023-11-07T02:42:35.262Z,9.98
2023-11-07T02:43:35.361Z,9.98
2023-11-07T02:44:35.281Z,9.98
2023-11-07T02:45:35.462Z,9.98
2023-11-07T02:46:35.266Z,9.98
2023-11-07T02:47:39.768Z,9.98
2023-11-07T02:48:36.299Z,9.98
2023-11-07T02:49:35.269Z,9.99
2023-11-07T02:50:35.228Z,9.99
2023-11-07T02:51:35.207Z,9.99
2023-11-07T02:52:35.212Z,9.99
2023-11-07T02:53:35.191Z,9.99
2023-11-07T02:54:35.180Z,9.99
2023-11-07T02:55:35.411Z,9.99
2023-11-07T02:56:35.407Z,9.99
2023-11-07T02:57:35.134Z,9.98
2023-11-07T02:58:35.148Z,9.97
2023-11-07T02:59:35.109Z,9.97
2023-11-07T03:00:35.125Z,9.96
2023-11-07T03:01:35.077Z,9.96
2023-11-07T03:02:35.135Z,9.96
2023-11-07T03:03:35.137Z,9.95
2023-11-07T03:04:42.546Z,9.94
2023-11-07T03:05:35.143Z,9.94
2023-11-07T03:06:35.046Z,9.94
2023-11-07T03:07:35.000Z,9.94
2023-11-07T03:08:35.077Z,9.94
2023-11-07T03:09:34.969Z,9.94
2023-11-07T03:10:34.972Z,9.94
2023-11-07T03:11:34.985Z,9.94
2023-11-07T03:12:34.975Z,9.94
2023-11-07T03:13:34.947Z,9.94
2023-11-07T03:14:34.985Z,9.94
2023-11-07T03:15:34.925Z,9.94
2023-11-07T03:16:34.911Z,9.94
2023-11-07T03:17:35.026Z,9.95
2023-11-07T03:18:34.972Z,9.95
2023-11-07T03:19:34.885Z,9.96
2023-11-07T03:20:35.066Z,9.96
2023-11-07T03:21:34.847Z,9.97
2023-11-07T03:22:34.857Z,9.97
2023-11-07T03:23:34.864Z,9.97
2023-11-07T03:24:34.800Z,9.97
2023-11-07T03:25:34.797Z,9.98
2023-11-07T03:26:34.845Z,9.97
2023-11-07T03:27:34.794Z,9.97
2023-11-07T03:28:34.792Z,9.97
2023-11-07T03:29:34.826Z,9.97
2023-11-07T03:30:34.778Z,9.98
2023-11-07T03:31:34.749Z,9.97
2023-11-07T03:32:34.828Z,9.98
2023-11-07T03:33:34.882Z,9.97
2023-11-07T03:34:34.715Z,9.97
2023-11-07T03:35:34.762Z,9.97
2023-11-07T03:36:34.719Z,9.97
2023-11-07T03:37:34.673Z,9.96
2023-11-07T03:38:34.739Z,9.95
2023-11-07T03:39:34.657Z,9.95
2023-11-07T03:40:34.657Z,9.96
2023-11-07T03:41:34.796Z,9.96
2023-11-07T03:42:34.624Z,9.96
2023-11-07T03:43:34.606Z,9.97
2023-11-07T03:44:34.668Z,9.97
2023-11-07T03:45:34.586Z,9.98
2023-11-07T03:46:34.616Z,9.98
2023-11-07T03:47:34.697Z,9.98
2023-11-07T03:48:34.706Z,9.98
2023-11-07T03:49:34.541Z,9.99
2023-11-07T03:50:34.563Z,9.99
2023-11-07T03:51:34.573Z,9.99
2023-11-07T03:52:34.551Z,9.99
2023-11-07T03:53:34.541Z,10.00
2023-11-07T03:54:34.494Z,10.00
2023-11-07T03:55:34.611Z,10.00
2023-11-07T03:56:34.495Z,10.00
2023-11-07T03:57:34.528Z,10.00
2023-11-07T03:58:34.445Z,10.00
2023-11-07T03:59:34.496Z,9.99
2023-11-07T04:00:34.429Z,9.99
2023-11-07T04:01:34.411Z,9.99
2023-11-07T04:02:34.449Z,9.99
2023-11-07T04:03:34.645Z,9.99
2023-11-07T04:04:34.421Z,9.99
2023-11-07T04:05:34.517Z,9.98
2023-11-07T04:06:34.393Z,9.97
2023-11-07T04:07:34.416Z,9.96
2023-11-07T04:08:34.516Z,9.95
2023-11-07T04:09:34.333Z,9.93
2023-11-07T04:10:34.346Z,9.92
2023-11-07T04:11:34.352Z,9.91
2023-11-07T04:12:34.351Z,9.90
2023-11-07T04:13:34.346Z,9.89
2023-11-07T04:14:34.364Z,9.89
2023-11-07T04:15:34.393Z,9.89
2023-11-07T04:16:34.252Z,9.88
2023-11-07T04:17:34.463Z,9.87
2023-11-07T04:18:34.351Z,9.87
2023-11-07T04:19:34.310Z,9.86
2023-11-07T04:20:34.613Z,9.86
2023-11-07T04:21:34.278Z,9.85
2023-11-07T04:22:34.192Z,9.85
2023-11-07T04:23:34.361Z,9.84
2023-11-07T04:24:34.160Z,9.84
2023-11-07T04:25:34.170Z,9.84
2023-11-07T04:26:34.173Z,9.84
2023-11-07T04:27:34.153Z,9.83
2023-11-07T04:28:34.128Z,9.83
2023-11-07T04:29:34.257Z,9.83
2023-11-07T04:30:34.164Z,9.82
2023-11-07T04:31:34.089Z,9.82
2023-11-07T04:32:34.215Z,9.82
2023-11-07T04:33:34.214Z,9.82
2023-11-07T04:34:34.083Z,9.82
2023-11-07T04:35:34.063Z,9.82
2023-11-07T04:36:34.077Z,9.81
2023-11-07T04:37:34.076Z,9.82
2023-11-07T04:38:34.191Z,9.81
2023-11-07T04:39:34.098Z,9.81
2023-11-07T04:40:34.006Z,9.80
2023-11-07T04:41:34.046Z,9.80
2023-11-07T04:42:33.990Z,9.79
2023-11-07T04:43:34.033Z,9.78
2023-11-07T04:44:33.976Z,9.78
2023-11-07T04:45:33.964Z,9.78
2023-11-07T04:46:33.927Z,9.78
2023-11-07T04:47:34.263Z,9.77
2023-11-07T04:48:34.120Z,9.77
2023-11-07T04:49:34.106Z,9.77
2023-11-07T04:50:33.951Z,9.77
2023-11-07T04:51:33.873Z,9.77
2023-11-07T04:52:33.883Z,9.77
2023-11-07T04:53:33.949Z,9.77
2023-11-07T04:54:33.842Z,9.77
2023-11-07T04:55:33.839Z,9.77
2023-11-07T04:56:33.993Z,9.77
2023-11-07T04:57:33.811Z,9.77
2023-11-07T04:58:33.821Z,9.77
2023-11-07T04:59:33.786Z,9.76
2023-11-07T05:00:33.792Z,9.76
2023-11-07T05:01:33.779Z,9.76
2023-11-07T05:02:33.823Z,9.75
2023-11-07T05:03:38.955Z,9.75
2023-11-07T05:04:34.757Z,9.74
2023-11-07T05:05:33.714Z,9.74
2023-11-07T05:06:33.790Z,9.74
2023-11-07T05:07:33.706Z,9.74
2023-11-07T05:08:33.738Z,9.75
2023-11-07T05:09:33.734Z,9.75
2023-11-07T05:10:33.818Z,9.76
2023-11-07T05:11:33.990Z,9.76
2023-11-07T05:12:34.478Z,9.76
2023-11-07T05:13:33.655Z,9.77
2023-11-07T05:14:33.645Z,9.78
2023-11-07T05:15:33.627Z,9.78
2023-11-07T05:16:33.921Z,9.79
2023-11-07T05:17:34.406Z,9.80
2023-11-07T05:18:33.743Z,9.80
2023-11-07T05:19:33.929Z,9.80
2023-11-07T05:20:34.473Z,9.81
2023-11-07T05:21:34.305Z,9.81
2023-11-07T05:22:33.634Z,9.81
2023-11-07T05:23:34.368Z,9.81
2023-11-07T05:24:33.542Z,9.82
2023-11-07T05:25:33.529Z,9.82
2023-11-07T05:26:33.583Z,9.83
2023-11-07T05:27:33.497Z,9.83
2023-11-07T05:28:33.495Z,9.83
2023-11-07T05:29:33.528Z,9.83
2023-11-07T05:30:34.211Z,9.83
2023-11-07T05:31:33.458Z,9.83
2023-11-07T05:32:33.470Z,9.83
2023-11-07T05:33:33.605Z,9.83
2023-11-07T05:34:33.431Z,9.83
2023-11-07T05:35:33.411Z,9.83
2023-11-07T05:36:33.468Z,9.83
2023-11-07T05:37:33.400Z,9.83
2023-11-07T05:38:33.483Z,9.83
2023-11-07T05:39:33.396Z,9.83
2023-11-07T05:40:33.374Z,9.83
2023-11-07T05:41:33.353Z,9.83
2023-11-07T05:42:33.382Z,9.83
2023-11-07T05:43:33.489Z,9.83
2023-11-07T05:44:33.363Z,9.83
2023-11-07T05:45:33.314Z,9.83
2023-11-07T05:46:33.337Z,9.83
2023-11-07T05:47:33.440Z,9.83
2023-11-07T05:48:33.453Z,9.83
2023-11-07T05:49:33.295Z,9.83
2023-11-07T05:50:33.258Z,9.83
2023-11-07T05:51:33.325Z,9.82
2023-11-07T05:52:33.233Z,9.81
2023-11-07T05:53:33.252Z,9.81
2023-11-07T05:54:33.221Z,9.80
2023-11-07T05:55:33.278Z,9.80
2023-11-07T05:56:33.261Z,9.80
2023-11-07T05:57:33.163Z,9.80
2023-11-07T05:58:33.163Z,9.79
2023-11-07T05:59:33.235Z,9.79
2023-11-07T06:00:33.144Z,9.78
2023-11-07T06:01:33.136Z,9.78
2023-11-07T06:02:33.149Z,9.77
2023-11-07T06:03:33.321Z,9.77
2023-11-07T06:04:33.119Z,9.77
2023-11-07T06:05:33.089Z,9.77
2023-11-07T06:06:33.187Z,9.77
2023-11-07T06:07:33.055Z,9.77
2023-11-07T06:08:33.064Z,9.77
2023-11-07T06:09:33.121Z,9.77
2023-11-07T06:10:33.018Z,9.77
2023-11-07T06:11:33.052Z,9.77
2023-11-07T06:12:33.060Z,9.77
2023-11-07T06:13:33.051Z,9.77
2023-11-07T06:14:33.015Z,9.76
2023-11-07T06:15:33.034Z,9.76
2023-11-07T06:16:32.999Z,9.75
2023-11-07T06:17:33.003Z,9.75
2023-11-07T06:18:33.011Z,9.75
2023-11-07T06:19:32.994Z,9.74
2023-11-07T06:20:32.901Z,9.74
2023-11-07T06:21:32.896Z,9.75
2023-11-07T06:22:33.058Z,9.75
2023-11-07T06:23:32.880Z,9.75
2023-11-07T06:24:32.895Z,9.75
2023-11-07T06:25:32.973Z,9.75
2023-11-07T06:26:32.861Z,9.75
2023-11-07T06:27:32.859Z,9.76
2023-11-07T06:28:32.837Z,9.76
2023-11-07T06:29:32.842Z,9.77
2023-11-07T06:30:32.821Z,9.78
2023-11-07T06:31:32.789Z,9.78
2023-11-07T06:32:32.908Z,9.79
2023-11-07T06:33:32.928Z,9.80
2023-11-07T06:34:32.944Z,9.81
2023-11-07T06:35:32.785Z,9.82
2023-11-07T06:36:32.897Z,9.82
2023-11-07T06:37:32.726Z,9.82
2023-11-07T06:38:35.317Z,9.82
2023-11-07T06:39:32.765Z,9.82
2023-11-07T06:40:32.722Z,9.82
2023-11-07T06:41:32.697Z,9.82
2023-11-07T06:42:32.673Z,9.81
2023-11-07T06:43:32.705Z,9.81
2023-11-07T06:44:32.730Z,9.81
2023-11-07T06:45:32.644Z,9.80
2023-11-07T06:46:32.679Z,9.80
2023-11-07T06:47:32.676Z,9.79
2023-11-07T06:48:32.777Z,9.79
2023-11-07T06:49:32.717Z,9.79
2023-11-07T06:50:32.663Z,9.79
2023-11-07T06:51:32.576Z,9.79
2023-11-07T06:52:32.562Z,9.79
2023-11-07T06:53:32.564Z,9.79
2023-11-07T06:54:32.564Z,9.79
2023-11-07T06:55:32.559Z,9.79
2023-11-07T06:56:32.534Z,9.80
2023-11-07T06:57:32.521Z,9.80
2023-11-07T06:58:32.521Z,9.81
2023-11-07T06:59:32.514Z,9.82
2023-11-07T07:00:32.514Z,9.83
2023-11-07T07:01:32.500Z,9.85
2023-11-07T07:02:32.458Z,9.86
2023-11-07T07:03:32.550Z,9.89
2023-11-07T07:04:32.482Z,9.91
2023-11-07T07:05:32.508Z,9.93
2023-11-07T07:06:32.481Z,9.95
2023-11-07T07:07:32.410Z,9.97
2023-11-07T07:08:32.389Z,9.99
2023-11-07T07:09:32.427Z,10.01
2023-11-07T07:10:32.370Z,10.03
2023-11-07T07:11:32.350Z,10.06
2023-11-07T07:12:32.373Z,10.08
2023-11-07T07:13:32.355Z,10.10
2023-11-07T07:14:32.350Z,10.13
2023-11-07T07:15:32.311Z,10.15
2023-11-07T07:16:32.297Z,10.18
2023-11-07T07:17:32.320Z,10.20
2023-11-07T07:18:32.413Z,10.22
2023-11-07T07:19:32.474Z,10.25
2023-11-07T07:20:32.335Z,10.27
2023-11-07T07:21:32.247Z,10.29
2023-11-07T07:22:32.249Z,10.31
2023-11-07T07:23:32.220Z,10.34
2023-11-07T07:24:32.217Z,10.38
2023-11-07T07:25:32.437Z,10.41
2023-11-07T07:26:32.217Z,10.44
2023-11-07T07:27:32.188Z,10.46
2023-11-07T07:28:32.225Z,10.49
2023-11-07T07:29:32.170Z,10.53
2023-11-07T07:30:32.185Z,10.55
2023-11-07T07:31:32.137Z,10.58
2023-11-07T07:32:32.147Z,10.61
2023-11-07T07:33:32.348Z,10.63
2023-11-07T07:34:32.201Z,10.66
2023-11-07T07:35:32.172Z,10.69
2023-11-07T07:36:32.098Z,10.71
2023-11-07T07:37:32.114Z,10.74
2023-11-07T07:38:32.074Z,10.76
2023-11-07T07:39:32.881Z,10.79
2023-11-07T07:40:32.056Z,10.81
2023-11-07T07:41:32.056Z,10.84
2023-11-07T07:42:32.017Z,10.87
2023-11-07T07:43:32.042Z,10.89
2023-11-07T07:44:31.991Z,10.92
2023-11-07T07:45:33.536Z,10.95
2023-11-07T07:46:31.976Z,10.98
2023-11-07T07:47:32.089Z,11.01
2023-11-07T07:48:32.071Z,11.04
2023-11-07T07:49:32.012Z,11.06
2023-11-07T07:50:32.157Z,11.09
2023-11-07T07:51:32.055Z,11.12
2023-11-07T07:52:31.914Z,11.16
2023-11-07T07:53:32.025Z,11.21
2023-11-07T07:54:52.890Z,11.24
2023-11-07T07:55:35.446Z,11.26
2023-11-07T07:56:31.903Z,11.28
2023-11-07T07:57:31.860Z,11.30
2023-11-07T07:58:31.853Z,11.33
2023-11-07T07:59:32.014Z,11.36
2023-11-07T08:00:31.866Z,11.39
2023-11-07T08:01:31.835Z,11.42
2023-11-07T08:02:31.877Z,11.46
2023-11-07T08:03:31.816Z,11.51
2023-11-07T08:04:31.798Z,11.55
2023-11-07T08:05:31.842Z,11.60
2023-11-07T08:06:31.862Z,11.64
2023-11-07T08:07:31.756Z,11.68
2023-11-07T08:08:31.762Z,11.73
2023-11-07T08:09:31.732Z,11.77
2023-11-07T08:10:31.743Z,11.80
2023-11-07T08:11:31.724Z,11.83
2023-11-07T08:12:31.690Z,11.85
2023-11-07T08:13:31.682Z,11.89
2023-11-07T08:14:31.749Z,11.93
2023-11-07T08:15:31.685Z,11.96
2023-11-07T08:16:31.748Z,11.99
2023-11-07T08:17:31.651Z,12.01
2023-11-07T08:18:31.784Z,12.04
2023-11-07T08:19:31.642Z,12.06
2023-11-07T08:20:31.639Z,12.08
2023-11-07T08:21:31.589Z,12.10
2023-11-07T08:22:31.637Z,12.11
2023-11-07T08:23:31.602Z,12.13
2023-11-07T08:24:31.581Z,12.14
2023-11-07T08:25:31.658Z,12.16
2023-11-07T08:26:31.574Z,12.18
2023-11-07T08:27:32.337Z,12.20
2023-11-07T08:28:31.522Z,12.22
2023-11-07T08:29:31.649Z,12.24
2023-11-07T08:30:31.517Z,12.27
2023-11-07T08:31:31.533Z,12.31
2023-11-07T08:32:31.739Z,12.35
2023-11-07T08:33:31.589Z,12.39
2023-11-07T08:34:31.481Z,12.45
2023-11-07T08:35:31.539Z,12.50
2023-11-07T08:36:31.481Z,12.54
2023-11-07T08:37:31.430Z,12.58
2023-11-07T08:38:31.430Z,12.60
2023-11-07T08:39:31.439Z,12.62
2023-11-07T08:40:31.416Z,12.64
2023-11-07T08:41:31.420Z,12.66
2023-11-07T08:42:31.368Z,12.67
2023-11-07T08:43:31.364Z,12.69
2023-11-07T08:44:31.387Z,12.70
2023-11-07T08:45:31.379Z,12.72
2023-11-07T08:46:31.507Z,12.74
2023-11-07T08:47:31.390Z,12.76
2023-11-07T08:48:31.464Z,12.76
2023-11-07T08:49:31.468Z,12.77
2023-11-07T08:50:31.322Z,12.80
2023-11-07T08:51:31.324Z,12.84
2023-11-07T08:52:31.277Z,12.86
2023-11-07T08:53:31.274Z,12.88
2023-11-07T08:54:31.245Z,12.91
2023-11-07T08:55:31.249Z,12.95
2023-11-07T08:56:31.568Z,13.00
2023-11-07T08:57:31.297Z,13.04
2023-11-07T08:58:31.247Z,13.08
2023-11-07T08:59:31.190Z,13.10
2023-11-07T09:00:31.248Z,13.13
2023-11-07T09:01:31.263Z,13.14
2023-11-07T09:02:31.215Z,13.16
2023-11-07T09:03:31.227Z,13.17
2023-11-07T09:04:38.728Z,13.18
2023-11-07T09:05:31.159Z,13.18
2023-11-07T09:06:31.127Z,13.18
2023-11-07T09:07:31.134Z,13.18
2023-11-07T09:08:31.109Z,13.18
2023-11-07T09:09:31.172Z,13.19
2023-11-07T09:10:31.100Z,13.20
2023-11-07T09:11:31.106Z,13.20
2023-11-07T09:12:31.246Z,13.20
2023-11-07T09:13:31.098Z,13.21
2023-11-07T09:14:31.050Z,13.25
2023-11-07T09:15:31.056Z,13.30
2023-11-07T09:16:31.059Z,13.32
2023-11-07T09:17:32.072Z,13.33
2023-11-07T09:18:31.079Z,13.34
2023-11-07T09:19:31.137Z,13.33
2023-11-07T09:20:30.963Z,13.31
2023-11-07T09:21:30.952Z,13.28
2023-11-07T09:22:31.124Z,13.27
2023-11-07T09:23:30.936Z,13.28
2023-11-07T09:24:30.933Z,13.29
2023-11-07T09:25:30.921Z,13.31
2023-11-07T09:26:30.931Z,13.34
2023-11-07T09:27:31.231Z,13.37
2023-11-07T09:28:30.883Z,13.39
2023-11-07T09:29:30.899Z,13.42
2023-11-07T09:30:30.891Z,13.44
2023-11-07T09:31:30.904Z,13.46
2023-11-07T09:32:31.052Z,13.48
2023-11-07T09:33:30.989Z,13.51
2023-11-07T09:34:30.901Z,13.52
2023-11-07T09:35:30.793Z,13.53
2023-11-07T09:36:30.799Z,13.54
2023-11-07T09:37:30.865Z,13.54
2023-11-07T09:38:39.305Z,13.54
2023-11-07T09:39:31.790Z,13.54
2023-11-07T09:40:30.853Z,13.56
2023-11-07T09:41:30.750Z,13.57
2023-11-07T09:42:30.811Z,13.59
2023-11-07T09:43:30.820Z,13.61
2023-11-07T09:44:30.716Z,13.62
2023-11-07T09:45:30.819Z,13.62
2023-11-07T09:46:30.696Z,13.62
2023-11-07T09:47:30.730Z,13.63
2023-11-07T09:48:30.776Z,13.62
2023-11-07T09:49:30.988Z,13.59
2023-11-07T09:50:30.691Z,13.56
2023-11-07T09:51:30.631Z,13.54
2023-11-07T09:52:30.663Z,13.52
2023-11-07T09:53:30.616Z,13.51
2023-11-07T09:54:30.729Z,13.51
2023-11-07T09:55:32.033Z,13.51
2023-11-07T09:56:30.613Z,13.52
2023-11-07T09:57:30.582Z,13.53
2023-11-07T09:58:30.560Z,13.55
2023-11-07T09:59:30.547Z,13.55
2023-11-07T10:00:30.588Z,13.53
2023-11-07T10:01:30.516Z,13.52
2023-11-07T10:02:30.622Z,13.52
2023-11-07T10:03:30.748Z,13.54
2023-11-07T10:04:30.873Z,13.57
2023-11-07T10:05:30.491Z,13.60
2023-11-07T10:06:30.487Z,13.64
2023-11-07T10:07:31.078Z,13.66
2023-11-07T10:08:31.135Z,13.69
2023-11-07T10:09:30.534Z,13.71
2023-11-07T10:10:30.428Z,13.72
2023-11-07T10:11:30.420Z,13.74
2023-11-07T10:12:30.494Z,13.77
2023-11-07T10:13:30.421Z,13.79
2023-11-07T10:14:30.422Z,13.79
2023-11-07T10:15:30.398Z,13.78
2023-11-07T10:16:30.364Z,13.78
2023-11-07T10:17:30.446Z,13.79
2023-11-07T10:18:30.452Z,13.81
2023-11-07T10:19:30.455Z,13.83
2023-11-07T10:20:30.346Z,13.85
2023-11-07T10:21:30.349Z,13.86
2023-11-07T10:22:30.318Z,13.88
2023-11-07T10:23:30.348Z,13.88
2023-11-07T10:24:30.322Z,13.87
2023-11-07T10:25:30.368Z,13.86
2023-11-07T10:26:30.308Z,13.84
2023-11-07T10:27:30.272Z,13.84
2023-11-07T10:28:30.243Z,13.85
2023-11-07T10:29:30.333Z,13.86
2023-11-07T10:30:30.302Z,13.86
2023-11-07T10:31:30.250Z,13.85
2023-11-07T10:32:30.221Z,13.84
2023-11-07T10:33:30.738Z,13.81
2023-11-07T10:34:30.210Z,13.77
2023-11-07T10:35:30.149Z,13.73
2023-11-07T10:36:30.303Z,13.67
2023-11-07T10:37:30.139Z,13.59
2023-11-07T10:38:30.696Z,13.51
2023-11-07T10:39:30.145Z,13.43
2023-11-07T10:40:30.097Z,13.37
2023-11-07T10:41:30.243Z,13.32
2023-11-07T10:42:30.078Z,13.28
2023-11-07T10:43:30.149Z,13.25
2023-11-07T10:44:30.483Z,13.23
2023-11-07T10:45:30.102Z,13.21
2023-11-07T10:46:30.046Z,13.18
2023-11-07T10:47:30.154Z,13.14
2023-11-07T10:48:30.088Z,13.11
2023-11-07T10:49:30.079Z,13.08
2023-11-07T10:50:30.005Z,13.06
2023-11-07T10:51:30.024Z,13.04
2023-11-07T10:52:30.054Z,13.03
2023-11-07T10:53:29.983Z,13.02
2023-11-07T10:54:29.955Z,13.01
2023-11-07T10:55:29.952Z,12.99
2023-11-07T10:56:29.983Z,12.97
2023-11-07T10:57:29.942Z,12.96
2023-11-07T10:58:29.903Z,12.94
2023-11-07T10:59:29.908Z,12.92
2023-11-07T11:00:29.963Z,12.90
2023-11-07T11:01:29.943Z,12.88
2023-11-07T11:02:29.904Z,12.87
2023-11-07T11:03:30.225Z,12.87
2023-11-07T11:04:29.969Z,12.86
2023-11-07T11:05:29.854Z,12.86
2023-11-07T11:06:29.836Z,12.86
2023-11-07T11:07:29.835Z,12.86
2023-11-07T11:08:29.841Z,12.87
2023-11-07T11:09:29.859Z,12.88
2023-11-07T11:10:29.941Z,12.89
2023-11-07T11:11:31.731Z,12.90
2023-11-07T11:12:29.765Z,12.91
2023-11-07T11:13:29.780Z,12.92
2023-11-07T11:14:29.753Z,12.92
2023-11-07T11:15:29.957Z,12.90
2023-11-07T11:16:29.805Z,12.89
2023-11-07T11:17:29.749Z,12.87
2023-11-07T11:18:30.000Z,12.85
2023-11-07T11:19:29.857Z,12.84
2023-11-07T11:20:29.690Z,12.82
2023-11-07T11:21:29.711Z,12.81
2023-11-07T11:22:29.642Z,12.80
2023-11-07T11:23:29.887Z,12.79
2023-11-07T11:24:29.616Z,12.78
2023-11-07T11:25:29.742Z,12.78
2023-11-07T11:26:29.636Z,12.77
2023-11-07T11:27:29.836Z,12.77
2023-11-07T11:28:29.643Z,12.76
2023-11-07T11:29:29.598Z,12.75
2023-11-07T11:30:29.820Z,12.74
2023-11-07T11:31:29.574Z,12.74
2023-11-07T11:32:29.632Z,12.74
2023-11-07T11:33:29.676Z,12.75
2023-11-07T11:34:29.710Z,12.76
2023-11-07T11:35:29.512Z,12.76
2023-11-07T11:36:29.501Z,12.76
2023-11-07T11:37:29.493Z,12.76
2023-11-07T11:38:29.487Z,12.76
2023-11-07T11:39:29.564Z,12.75
2023-11-07T11:40:29.462Z,12.73
2023-11-07T11:41:29.519Z,12.72
2023-11-07T11:42:29.582Z,12.71
2023-11-07T11:43:29.498Z,12.70
2023-11-07T11:44:29.411Z,12.70
2023-11-07T11:45:40.813Z,12.70
2023-11-07T11:46:30.395Z,12.69
2023-11-07T11:47:29.429Z,12.69
2023-11-07T11:48:29.501Z,12.69
2023-11-07T11:49:29.468Z,12.68
2023-11-07T11:50:29.367Z,12.67
2023-11-07T11:51:29.335Z,12.66
2023-11-07T11:52:29.394Z,12.65
2023-11-07T11:53:29.363Z,12.65
2023-11-07T11:54:29.478Z,12.64
2023-11-07T11:55:29.317Z,12.64
2023-11-07T11:56:29.286Z,12.63
2023-11-07T11:57:29.300Z,12.62
2023-11-07T11:58:29.289Z,12.61
2023-11-07T11:59:29.335Z,12.60
2023-11-07T12:00:29.306Z,12.58
2023-11-07T12:01:29.279Z,12.57
2023-11-07T12:02:29.269Z,12.55
2023-11-07T12:03:29.324Z,12.54
2023-11-07T12:04:29.274Z,12.53
2023-11-07T12:05:29.224Z,12.52
2023-11-07T12:06:29.491Z,12.51
2023-11-07T12:07:29.176Z,12.51
2023-11-07T12:08:29.173Z,12.51
2023-11-07T12:09:29.184Z,12.51
2023-11-07T12:10:29.193Z,12.52
2023-11-07T12:11:40.724Z,12.51
2023-11-07T12:12:30.198Z,12.49
2023-11-07T12:13:29.119Z,12.47
2023-11-07T12:14:29.077Z,12.46
2023-11-07T12:15:29.236Z,12.46
2023-11-07T12:16:29.072Z,12.46
2023-11-07T12:17:29.085Z,12.46
2023-11-07T12:18:29.189Z,12.46
2023-11-07T12:19:29.118Z,12.45
2023-11-07T12:20:29.059Z,12.45
2023-11-07T12:21:29.059Z,12.44
2023-11-07T12:22:29.058Z,12.42
2023-11-07T12:23:29.012Z,12.41
2023-11-07T12:24:29.009Z,12.40
2023-11-07T12:25:29.070Z,12.39
2023-11-07T12:26:28.952Z,12.39
2023-11-07T12:27:28.961Z,12.38
2023-11-07T12:28:29.018Z,12.38
2023-11-07T12:29:28.972Z,12.38
2023-11-07T12:30:29.126Z,12.39
2023-11-07T12:31:28.955Z,12.39
2023-11-07T12:32:28.948Z,12.39
2023-11-07T12:33:29.030Z,12.39
2023-11-07T12:34:28.900Z,12.38
2023-11-07T12:35:28.874Z,12.36
2023-11-07T12:36:28.908Z,12.35
2023-11-07T12:37:28.850Z,12.35
2023-11-07T12:38:28.840Z,12.36
2023-11-07T12:39:28.922Z,12.37
2023-11-07T12:40:28.799Z,12.38
2023-11-07T12:41:28.810Z,12.39
2023-11-07T12:42:28.817Z,12.40
2023-11-07T12:43:28.784Z,12.41
2023-11-07T12:44:28.768Z,12.42
2023-11-07T12:45:28.861Z,12.43
2023-11-07T12:46:28.830Z,12.45
2023-11-07T12:47:28.780Z,12.46
2023-11-07T12:48:28.872Z,12.48
2023-11-07T12:49:28.792Z,12.49
2023-11-07T12:50:28.861Z,12.51
2023-11-07T12:51:28.868Z,12.52
2023-11-07T12:52:28.776Z,12.53
2023-11-07T12:53:28.664Z,12.54
2023-11-07T12:54:28.704Z,12.55
2023-11-07T12:55:28.829Z,12.56
2023-11-07T12:56:28.691Z,12.57
2023-11-07T12:57:28.666Z,12.57
2023-11-07T12:58:28.746Z,12.57
2023-11-07T12:59:28.597Z,12.58
2023-11-07T13:00:28.664Z,12.58
2023-11-07T13:01:28.616Z,12.58
2023-11-07T13:02:28.627Z,12.59
2023-11-07T13:03:28.657Z,12.58
2023-11-07T13:04:28.620Z,12.58
2023-11-07T13:05:28.588Z,12.57